Bethlehem, Connecticut
Current Conditions -  °F | °C
As of 4:55 AM on Sunday 21 Dec 2014 (Local Time) from KOXC Reporting Station
Overcast Overcast  
Wind Chill: 25°   Ceiling: 600
Heat Index: 30°   Visibility: 2.5mi
Dew Point: 23°   Wind: 5mph
Humidity: 75%   Direction: 10°N
Pressure: 30.24"   Gusts: NA
Location:  41.64°N, 73.21°W
Report Text: KOXC 210955Z 01004KT 2 1/2SM BKN006 OVC011 M01/M05 A3024 RMK AO1
Loading
Personal Weather Stations






























Interactive Weather Map New forecast layout! Learn more

10-Day Weather Forecast

Advertisements
Track Severe Weather on mobile